Time;durP1;ratioP1;P1;durP2;ratioP2;P2;SDS_P1;SDS_P2;PMS_P1;PMS_P2;Temp;Humidity;BMP_temperature;BMP_pressure;BME280_temperature;BME280_humidity;BME280_pressure;Samples;Min_cycle;Max_cycle;Signal;HPM_P1;HPM_P2
2023/09/21 00:02:51;;;;;;;9.80;4.75;;;;;;;;;;10489526;28;20061;-87
2023/09/21 00:07:52;;;;;;;11.30;5.93;;;;;;;;;;10489236;28;20040;-87
2023/09/21 00:12:53;;;;;;;8.77;5.15;;;;;;;;;;10488636;28;20530;-88
2023/09/21 00:17:54;;;;;;;10.68;5.45;;;;;;;;;;10488780;28;20034;-87
2023/09/21 00:22:55;;;;;;;7.05;4.07;;;;;;;;;;10488904;28;20491;-88
2023/09/21 00:27:57;;;;;;;11.68;5.55;;;;;;;;;;10470698;28;20036;-86
2023/09/21 00:32:58;;;;;;;8.98;4.90;;;;;;;;;;10488951;28;20032;-87
2023/09/21 00:38:01;;;;;;;8.80;4.70;;;;;;;;;;10469444;28;20582;-86
2023/09/21 00:43:06;;;;;;;9.32;5.07;;;;;;;;;;10469902;28;20142;-87
2023/09/21 00:48:21;;;;;;;12.93;5.18;;;;;;;;;;10488401;28;20399;-87
2023/09/21 00:53:23;;;;;;;10.45;4.63;;;;;;;;;;10469486;28;20163;-87
2023/09/21 00:58:25;;;;;;;11.13;5.40;;;;;;;;;;10488202;28;20398;-87
2023/09/21 01:03:28;;;;;;;10.52;4.90;;;;;;;;;;10486951;28;20047;-88
2023/09/21 01:08:29;;;;;;;13.07;5.53;;;;;;;;;;10467824;28;20742;-87
2023/09/21 01:13:31;;;;;;;9.25;4.45;;;;;;;;;;10485819;28;20365;-88
2023/09/21 01:18:33;;;;;;;11.50;4.50;;;;;;;;;;10486472;28;20040;-86
2023/09/21 01:23:45;;;;;;;6.97;4.57;;;;;;;;;;10486684;28;20495;-86
2023/09/21 01:28:47;;;;;;;9.55;4.75;;;;;;;;;;10444623;28;20036;-87
2023/09/21 01:33:48;;;;;;;8.82;5.28;;;;;;;;;;10485975;28;20036;-87
2023/09/21 01:38:50;;;;;;;6.05;4.15;;;;;;;;;;10485426;28;20506;-86
2023/09/21 01:43:51;;;;;;;9.57;4.95;;;;;;;;;;10467040;28;20050;-89
2023/09/21 01:48:53;;;;;;;7.70;4.60;;;;;;;;;;10467344;28;20699;-87
2023/09/21 01:53:54;;;;;;;8.98;4.88;;;;;;;;;;10466105;28;20120;-87
2023/09/21 01:58:55;;;;;;;6.88;4.50;;;;;;;;;;10486041;28;20032;-87
2023/09/21 02:03:56;;;;;;;8.65;4.10;;;;;;;;;;10485011;28;20109;-87
2023/09/21 02:08:57;;;;;;;6.75;4.10;;;;;;;;;;10466399;28;20345;-87
2023/09/21 02:13:58;;;;;;;9.32;4.40;;;;;;;;;;10467034;28;20638;-87
2023/09/21 02:19:00;;;;;;;7.38;4.50;;;;;;;;;;10483644;28;20809;-86
2023/09/21 02:24:03;;;;;;;8.88;4.60;;;;;;;;;;10466092;28;20606;-88
2023/09/21 02:29:04;;;;;;;6.53;4.32;;;;;;;;;;10482745;28;20129;-87
2023/09/21 02:34:05;;;;;;;7.80;4.30;;;;;;;;;;10484285;28;20032;-87
2023/09/21 02:39:08;;;;;;;9.38;4.38;;;;;;;;;;10465595;28;20429;-86
2023/09/21 02:44:10;;;;;;;5.47;3.80;;;;;;;;;;10465507;28;20037;-87
2023/09/21 02:49:13;;;;;;;6.90;4.13;;;;;;;;;;10466232;28;20028;-87
2023/09/21 02:54:14;;;;;;;8.57;4.45;;;;;;;;;;10465077;28;20056;-88
2023/09/21 02:59:15;;;;;;;6.38;4.03;;;;;;;;;;10465778;28;20043;-87
2023/09/21 03:04:16;;;;;;;6.80;4.45;;;;;;;;;;10483740;28;20514;-88
2023/09/21 03:09:18;;;;;;;5.70;3.53;;;;;;;;;;10464090;28;20048;-88
2023/09/21 03:14:25;;;;;;;9.95;4.88;;;;;;;;;;10485102;28;20569;-87
2023/09/21 03:19:26;;;;;;;5.90;3.83;;;;;;;;;;10464670;28;20616;-87
2023/09/21 03:24:27;;;;;;;6.57;4.40;;;;;;;;;;10484568;28;20037;-87
2023/09/21 03:29:29;;;;;;;9.73;4.57;;;;;;;;;;10481338;28;20036;-82
2023/09/21 03:34:30;;;;;;;7.43;3.53;;;;;;;;;;10483902;28;20031;-87
2023/09/21 03:39:46;;;;;;;9.68;5.13;;;;;;;;;;10474713;28;20547;-88
2023/09/21 03:44:47;;;;;;;;;;;;;;;;;;10470074;28;20037;-88
2023/09/21 03:49:49;;;;;;;6.43;4.15;;;;;;;;;;10488312;28;20261;-88
2023/09/21 03:54:52;;;;;;;8.45;4.55;;;;;;;;;;10467098;28;20086;-82
2023/09/21 03:59:53;;;;;;;10.63;5.05;;;;;;;;;;10489848;28;20040;-80
2023/09/21 04:05:01;;;;;;;9.60;4.55;;;;;;;;;;10487903;28;20052;-84
2023/09/21 04:10:02;;;;;;;8.45;4.38;;;;;;;;;;10477482;28;20056;-86
2023/09/21 04:15:03;;;;;;;10.02;4.68;;;;;;;;;;10489182;28;20490;-87
2023/09/21 04:20:04;;;;;;;10.38;4.78;;;;;;;;;;10488720;28;20111;-86
2023/09/21 04:25:14;;;;;;;5.10;3.95;;;;;;;;;;10485865;28;20082;-83
2023/09/21 04:30:16;;;;;;;8.27;4.38;;;;;;;;;;10488005;28;20036;-81
2023/09/21 04:35:18;;;;;;;9.20;4.85;;;;;;;;;;10482794;28;20024;-83
2023/09/21 04:40:20;;;;;;;8.98;4.80;;;;;;;;;;10483688;28;20056;-82
2023/09/21 04:45:21;;;;;;;11.95;5.93;;;;;;;;;;10487715;28;20479;-82
2023/09/21 04:50:22;;;;;;;12.65;6.00;;;;;;;;;;10487199;28;20036;-82
2023/09/21 04:55:23;;;;;;;11.60;5.60;;;;;;;;;;10487259;28;20031;-82
2023/09/21 05:00:24;;;;;;;8.43;5.18;;;;;;;;;;10487859;28;20033;-82
2023/09/21 05:05:26;;;;;;;9.80;5.20;;;;;;;;;;10486785;28;20040;-82
2023/09/21 05:10:28;;;;;;;10.10;5.47;;;;;;;;;;10478173;28;20040;-83
2023/09/21 05:15:29;;;;;;;10.15;5.35;;;;;;;;;;10468281;28;20032;-84
2023/09/21 05:20:30;;;;;;;8.85;5.95;;;;;;;;;;10487110;28;20021;-84
2023/09/21 05:25:31;;;;;;;10.68;5.95;;;;;;;;;;10486862;28;20043;-83
2023/09/21 05:30:32;;;;;;;12.85;6.28;;;;;;;;;;10485513;28;20032;-82
2023/09/21 05:35:34;;;;;;;11.98;6.57;;;;;;;;;;10483608;28;20064;-84
2023/09/21 05:40:35;;;;;;;13.18;6.43;;;;;;;;;;10471987;28;20097;-83
2023/09/21 05:45:36;;;;;;;11.32;5.97;;;;;;;;;;10485172;28;20048;-82
2023/09/21 05:50:40;;;;;;;14.07;5.93;;;;;;;;;;10485329;28;20046;-81
2023/09/21 05:55:44;;;;;;;15.10;6.60;;;;;;;;;;10485397;28;20488;-82
2023/09/21 06:00:45;;;;;;;10.32;5.65;;;;;;;;;;10485242;28;20030;-82
2023/09/21 06:05:47;;;;;;;12.63;6.53;;;;;;;;;;10481753;28;20045;-83
2023/09/21 06:10:48;;;;;;;15.85;6.15;;;;;;;;;;10484088;28;20033;-86
2023/09/21 06:15:50;;;;;;;14.35;6.53;;;;;;;;;;10487424;28;20115;-84
2023/09/21 06:20:54;;;;;;;15.15;6.32;;;;;;;;;;10484208;28;20036;-83
2023/09/21 06:25:55;;;;;;;15.05;6.22;;;;;;;;;;10485972;28;20032;-83
2023/09/21 06:30:56;;;;;;;13.82;6.10;;;;;;;;;;10483938;28;20365;-83
2023/09/21 06:35:57;;;;;;;15.07;6.47;;;;;;;;;;10482150;28;20037;-82
2023/09/21 06:40:58;;;;;;;11.48;6.13;;;;;;;;;;10467463;28;20060;-83
2023/09/21 06:45:59;;;;;;;15.98;7.20;;;;;;;;;;10483952;28;20040;-85
2023/09/21 06:51:01;;;;;;;13.85;5.95;;;;;;;;;;10484700;28;20032;-83
2023/09/21 06:56:02;;;;;;;13.25;5.28;;;;;;;;;;10486395;28;20078;-83
2023/09/21 07:01:04;;;;;;;11.63;4.53;;;;;;;;;;10482918;28;20027;-85
2023/09/21 07:06:05;;;;;;;13.43;4.93;;;;;;;;;;10480149;28;20032;-85
2023/09/21 07:11:06;;;;;;;16.40;5.20;;;;;;;;;;10473077;28;20017;-82
2023/09/21 07:16:07;;;;;;;6.47;3.60;;;;;;;;;;10491428;28;20020;-81
2023/09/21 07:21:08;;;;;;;6.43;2.80;;;;;;;;;;10490955;28;20431;-82
2023/09/21 07:26:09;;;;;;;4.95;2.47;;;;;;;;;;10485836;28;20078;-82
2023/09/21 07:31:12;;;;;;;4.65;2.50;;;;;;;;;;10489758;28;20605;-82
2023/09/21 07:36:14;;;;;;;7.20;3.33;;;;;;;;;;10483529;28;20462;-82
2023/09/21 07:41:16;;;;;;;8.55;3.00;;;;;;;;;;10489699;28;20032;-82
2023/09/21 07:46:17;;;;;;;7.07;2.97;;;;;;;;;;10481000;28;20040;-82
2023/09/21 07:51:19;;;;;;;8.25;3.28;;;;;;;;;;10488720;28;20028;-82
2023/09/21 07:56:20;;;;;;;7.75;2.78;;;;;;;;;;10490000;28;20094;-82
2023/09/21 08:01:21;;;;;;;3.65;2.33;;;;;;;;;;10489186;28;20126;-82
2023/09/21 08:06:22;;;;;;;5.63;2.30;;;;;;;;;;10484079;28;20059;-83
2023/09/21 08:11:23;;;;;;;6.90;2.40;;;;;;;;;;10462704;28;20039;-82
2023/09/21 08:16:24;;;;;;;8.15;1.90;;;;;;;;;;10485650;28;20082;-82
2023/09/21 08:21:25;;;;;;;3.78;2.03;;;;;;;;;;10481374;28;20082;-81
2023/09/21 08:26:26;;;;;;;5.22;2.25;;;;;;;;;;10485708;28;20469;-78
2023/09/21 08:31:28;;;;;;;5.60;2.00;;;;;;;;;;10484587;28;20032;-84
2023/09/21 08:36:28;;;;;;;4.60;2.10;;;;;;;;;;10488304;28;20040;-82
2023/09/21 08:41:30;;;;;;;5.10;1.67;;;;;;;;;;10480202;28;20028;-84
2023/09/21 08:46:32;;;;;;;3.88;2.10;;;;;;;;;;10464505;28;20040;-82
2023/09/21 08:51:33;;;;;;;4.82;1.60;;;;;;;;;;10488370;28;20032;-83
2023/09/21 08:56:36;;;;;;;2.75;1.60;;;;;;;;;;10484222;28;20090;-85
2023/09/21 09:01:37;;;;;;;8.38;2.35;;;;;;;;;;10482709;28;20052;-84
2023/09/21 09:06:38;;;;;;;3.25;2.20;;;;;;;;;;10484781;28;20105;-82
2023/09/21 09:11:40;;;;;;;7.75;2.60;;;;;;;;;;10486834;28;20032;-83
2023/09/21 09:16:41;;;;;;;6.88;2.72;;;;;;;;;;10483506;28;20025;-82
2023/09/21 09:21:44;;;;;;;4.05;2.08;;;;;;;;;;10486861;28;20093;-84
2023/09/21 09:26:45;;;;;;;3.15;2.20;;;;;;;;;;10486604;28;20123;-82
2023/09/21 09:31:48;;;;;;;5.93;1.65;;;;;;;;;;10485434;28;20066;-83
2023/09/21 09:36:52;;;;;;;2.60;1.75;;;;;;;;;;10485534;28;20547;-84
2023/09/21 09:41:53;;;;;;;4.15;2.08;;;;;;;;;;10485669;28;20051;-84
2023/09/21 09:46:58;;;;;;;5.03;1.95;;;;;;;;;;10479149;28;20068;-81
2023/09/21 09:52:00;;;;;;;;;;;;;;;;;;10482130;28;20036;-81
2023/09/21 09:57:01;;;;;;;6.22;1.90;;;;;;;;;;10483975;28;20563;-84
2023/09/21 10:02:07;;;;;;;6.38;1.83;;;;;;;;;;10466387;28;21041;-83
2023/09/21 10:07:09;;;;;;;11.90;2.35;;;;;;;;;;10440015;28;20048;-83
2023/09/21 10:12:11;;;;;;;3.35;1.80;;;;;;;;;;10442691;28;20119;-82
2023/09/21 10:17:14;;;;;;;8.68;3.05;;;;;;;;;;10442360;28;20712;-84
2023/09/21 10:22:28;;;;;;;5.57;2.03;;;;;;;;;;10443903;28;20116;-82
2023/09/21 10:27:29;;;;;;;6.68;1.90;;;;;;;;;;10445271;28;20032;-85
2023/09/21 10:32:41;;;;;;;3.40;1.67;;;;;;;;;;10457960;28;20420;-84
2023/09/21 10:37:42;;;;;;;2.70;1.83;;;;;;;;;;10443762;28;20096;-83
2023/09/21 10:42:43;;;;;;;7.18;2.35;;;;;;;;;;10456760;28;20025;-83
2023/09/21 10:47:48;;;;;;;5.95;2.00;;;;;;;;;;10451788;28;20037;-83
2023/09/21 10:52:51;;;;;;;4.25;2.25;;;;;;;;;;10454455;28;20085;-82
2023/09/21 10:57:53;;;;;;;5.50;2.30;;;;;;;;;;10458044;28;20037;-83
2023/09/21 11:02:54;;;;;;;4.97;1.85;;;;;;;;;;10467621;28;20051;-85
2023/09/21 11:07:55;;;;;;;9.40;2.53;;;;;;;;;;10491863;28;20402;-84
2023/09/21 11:12:56;;;;;;;11.10;2.47;;;;;;;;;;10491340;28;20037;-85
2023/09/21 11:17:57;;;;;;;4.38;2.10;;;;;;;;;;10476875;28;20039;-84
2023/09/21 11:23:01;;;;;;;6.95;2.70;;;;;;;;;;10484545;28;20036;-81
2023/09/21 11:28:03;;;;;;;5.47;2.08;;;;;;;;;;10491445;28;20139;-85
2023/09/21 11:33:04;;;;;;;5.60;2.17;;;;;;;;;;10490071;28;20028;-84
2023/09/21 11:38:05;;;;;;;5.65;2.10;;;;;;;;;;10484689;28;20029;-83
2023/09/21 11:43:10;;;;;;;5.55;2.10;;;;;;;;;;10488624;28;20029;-84
2023/09/21 11:48:12;;;;;;;5.32;3.40;;;;;;;;;;10486834;28;20079;-83
2023/09/21 11:53:13;;;;;;;14.93;3.05;;;;;;;;;;10489774;28;20437;-82
2023/09/21 11:58:15;;;;;;;5.32;2.88;;;;;;;;;;10489960;28;20028;-82
2023/09/21 12:03:23;;;;;;;4.55;2.53;;;;;;;;;;10488422;28;20057;-83
2023/09/21 12:08:25;;;;;;;4.47;2.30;;;;;;;;;;10482295;28;20107;-82
2023/09/21 12:13:26;;;;;;;4.88;2.40;;;;;;;;;;10486596;28;20028;-85
2023/09/21 12:18:28;;;;;;;8.65;2.67;;;;;;;;;;10466634;28;20029;-83
2023/09/21 12:23:31;;;;;;;11.45;2.97;;;;;;;;;;10444489;28;21628;-82
2023/09/21 12:28:35;;;;;;;7.07;3.05;;;;;;;;;;10483612;28;20028;-83
2023/09/21 12:33:36;;;;;;;6.83;2.93;;;;;;;;;;10478616;28;20027;-86
2023/09/21 12:38:40;;;;;;;5.90;3.30;;;;;;;;;;10460403;28;20056;-79
2023/09/21 12:43:50;;;;;;;5.40;2.75;;;;;;;;;;10466516;28;20089;-79
2023/09/21 12:48:51;;;;;;;11.85;3.33;;;;;;;;;;10461413;28;20082;-82
2023/09/21 12:53:52;;;;;;;6.82;3.63;;;;;;;;;;10452760;28;20067;-79
2023/09/21 12:58:55;;;;;;;7.45;3.10;;;;;;;;;;10484640;28;20039;-80
2023/09/21 13:03:59;;;;;;;9.20;3.15;;;;;;;;;;10472046;28;20127;-82
2023/09/21 13:09:01;;;;;;;6.95;3.17;;;;;;;;;;10483887;28;20021;-80
2023/09/21 13:14:03;;;;;;;6.30;2.55;;;;;;;;;;10474057;28;20020;-81
2023/09/21 13:19:04;;;;;;;11.05;3.70;;;;;;;;;;10476178;28;20361;-82
2023/09/21 13:24:09;;;;;;;4.70;3.10;;;;;;;;;;10481718;28;20376;-82
2023/09/21 13:29:10;;;;;;;7.57;3.75;;;;;;;;;;10470104;28;20100;-80
2023/09/21 13:34:11;;;;;;;6.22;3.28;;;;;;;;;;10473191;28;20106;-80
2023/09/21 13:39:13;;;;;;;5.38;2.88;;;;;;;;;;10478906;28;20166;-84
2023/09/21 13:44:14;;;;;;;5.30;2.60;;;;;;;;;;10475630;28;20032;-85
2023/09/21 13:49:15;;;;;;;6.15;3.00;;;;;;;;;;10478017;28;20162;-82
2023/09/21 13:54:16;;;;;;;7.13;3.35;;;;;;;;;;10480715;28;20033;-82
2023/09/21 13:59:20;;;;;;;9.73;2.60;;;;;;;;;;10484309;28;20351;-82
2023/09/21 14:04:22;;;;;;;5.63;2.97;;;;;;;;;;10476326;28;20064;-85
2023/09/21 14:09:23;;;;;;;4.07;2.67;;;;;;;;;;10484311;28;20096;-84
2023/09/21 14:14:24;;;;;;;3.60;2.45;;;;;;;;;;10478125;28;20081;-82
2023/09/21 14:19:25;;;;;;;7.45;2.63;;;;;;;;;;10463282;28;20036;-81
2023/09/21 14:24:27;;;;;;;10.48;2.72;;;;;;;;;;10475825;28;20048;-80
2023/09/21 14:29:28;;;;;;;5.30;2.63;;;;;;;;;;10470910;28;20464;-81
2023/09/21 14:34:33;;;;;;;4.95;2.63;;;;;;;;;;10465652;28;20041;-81
2023/09/21 14:39:34;;;;;;;5.10;2.60;;;;;;;;;;10475945;28;20451;-82
2023/09/21 14:44:35;;;;;;;9.52;2.85;;;;;;;;;;10484172;28;20115;-82
2023/09/21 14:49:48;;;;;;;4.88;2.80;;;;;;;;;;10483225;28;20020;-81
2023/09/21 14:54:50;;;;;;;10.75;2.85;;;;;;;;;;10469318;28;20044;-82
2023/09/21 14:59:51;;;;;;;24.10;3.63;;;;;;;;;;10476781;28;20029;-81
2023/09/21 15:04:52;;;;;;;6.47;2.50;;;;;;;;;;10478224;28;20397;-82
2023/09/21 15:09:53;;;;;;;8.80;2.20;;;;;;;;;;10482927;28;20360;-83
2023/09/21 15:14:54;;;;;;;4.50;2.22;;;;;;;;;;10467039;28;20480;-82
2023/09/21 15:19:56;;;;;;;6.20;2.70;;;;;;;;;;10484498;28;20387;-83
2023/09/21 15:24:57;;;;;;;6.70;2.42;;;;;;;;;;10465214;28;20037;-82
2023/09/21 15:29:59;;;;;;;7.15;2.20;;;;;;;;;;10484287;28;20772;-82
2023/09/21 15:35:00;;;;;;;5.13;2.25;;;;;;;;;;10490954;28;20621;-80
2023/09/21 15:40:17;;;;;;;4.80;2.28;;;;;;;;;;10489730;28;20044;-82
2023/09/21 15:45:19;;;;;;;4.05;1.90;;;;;;;;;;10466932;28;20060;-84
2023/09/21 15:50:23;;;;;;;8.43;2.35;;;;;;;;;;10471793;28;20059;-83
2023/09/21 15:55:31;;;;;;;6.18;2.20;;;;;;;;;;10490556;28;20480;-84
2023/09/21 16:00:32;;;;;;;6.18;2.53;;;;;;;;;;10474680;28;20123;-83
2023/09/21 16:05:33;;;;;;;12.07;10.50;;;;;;;;;;10487084;28;20090;-82
2023/09/21 16:10:35;;;;;;;6.47;3.70;;;;;;;;;;10489483;28;20041;-82
2023/09/21 16:15:36;;;;;;;6.50;5.22;;;;;;;;;;10484991;28;20031;-82
2023/09/21 16:20:37;;;;;;;5.60;3.83;;;;;;;;;;10482319;28;20048;-84
2023/09/21 16:25:38;;;;;;;9.80;3.20;;;;;;;;;;10487216;28;20079;-85
2023/09/21 16:30:39;;;;;;;4.53;2.80;;;;;;;;;;10474630;28;20029;-82
2023/09/21 16:35:40;;;;;;;7.93;3.03;;;;;;;;;;10468056;28;20029;-85
2023/09/21 16:40:41;;;;;;;4.43;3.03;;;;;;;;;;10478321;28;20090;-82
2023/09/21 16:45:42;;;;;;;9.13;3.60;;;;;;;;;;10476119;28;20047;-83
2023/09/21 16:50:43;;;;;;;5.60;3.50;;;;;;;;;;10475308;28;20103;-81
2023/09/21 16:55:44;;;;;;;5.55;3.35;;;;;;;;;;10477675;28;20371;-82
2023/09/21 17:00:45;;;;;;;5.97;3.90;;;;;;;;;;10473944;28;20031;-81
2023/09/21 17:05:47;;;;;;;7.95;4.63;;;;;;;;;;10483552;28;20052;-80
2023/09/21 17:10:48;;;;;;;9.40;4.45;;;;;;;;;;10484148;28;20102;-81
2023/09/21 17:15:49;;;;;;;10.20;4.20;;;;;;;;;;10478636;28;20028;-80
2023/09/21 17:20:50;;;;;;;8.35;4.20;;;;;;;;;;10484405;28;20099;-80
2023/09/21 17:25:51;;;;;;;6.95;3.58;;;;;;;;;;10485102;28;20090;-82
2023/09/21 17:30:52;;;;;;;10.43;4.80;;;;;;;;;;10458829;28;20549;-80
2023/09/21 17:35:53;;;;;;;10.35;5.00;;;;;;;;;;10482799;28;20041;-82
2023/09/21 17:40:55;;;;;;;7.65;4.50;;;;;;;;;;10482662;28;20077;-80
2023/09/21 17:45:56;;;;;;;6.85;4.68;;;;;;;;;;10482563;28;20036;-81
2023/09/21 17:50:57;;;;;;;6.03;4.47;;;;;;;;;;10483346;28;20016;-81
2023/09/21 17:55:58;;;;;;;7.63;4.40;;;;;;;;;;10471251;28;20032;-81
2023/09/21 18:01:00;;;;;;;8.38;4.47;;;;;;;;;;10475769;28;20031;-80
2023/09/21 18:06:07;;;;;;;7.60;4.63;;;;;;;;;;10476391;28;20041;-80
2023/09/21 18:11:08;;;;;;;6.80;4.78;;;;;;;;;;10474330;28;20110;-80
2023/09/21 18:16:09;;;;;;;13.27;5.35;;;;;;;;;;10465036;28;20020;-80
2023/09/21 18:21:10;;;;;;;9.88;5.63;;;;;;;;;;10482387;28;20043;-78
2023/09/21 18:26:14;;;;;;;12.70;5.80;;;;;;;;;;10480730;28;20051;-80
2023/09/21 18:31:15;;;;;;;7.43;5.18;;;;;;;;;;10477943;28;20039;-79
2023/09/21 18:36:16;;;;;;;9.32;5.45;;;;;;;;;;10474433;28;20542;-80
2023/09/21 18:41:17;;;;;;;8.05;5.57;;;;;;;;;;10470896;28;20024;-79
2023/09/21 18:46:18;;;;;;;8.38;6.30;;;;;;;;;;10473468;28;20044;-80
2023/09/21 18:51:20;;;;;;;8.75;5.82;;;;;;;;;;10477641;28;20507;-80
2023/09/21 18:56:27;;;;;;;8.80;5.22;;;;;;;;;;10478905;28;20021;-80
2023/09/21 19:01:29;;;;;;;10.05;6.20;;;;;;;;;;10472787;28;20074;-81
2023/09/21 19:06:30;;;;;;;9.40;6.20;;;;;;;;;;10477036;28;20653;-80
2023/09/21 19:11:31;;;;;;;10.23;6.43;;;;;;;;;;10461828;28;20041;-80
2023/09/21 19:16:33;;;;;;;11.60;6.70;;;;;;;;;;10468681;28;20029;-80
2023/09/21 19:21:34;;;;;;;7.78;5.90;;;;;;;;;;10485386;28;20418;-80
2023/09/21 19:26:35;;;;;;;10.27;6.90;;;;;;;;;;10488299;28;20043;-80
2023/09/21 19:31:36;;;;;;;7.30;6.25;;;;;;;;;;10472795;28;20024;-81
2023/09/21 19:36:37;;;;;;;7.70;6.05;;;;;;;;;;10483922;28;20504;-80
2023/09/21 19:41:38;;;;;;;12.02;6.25;;;;;;;;;;10485610;28;20071;-80
2023/09/21 19:46:39;;;;;;;10.60;6.30;;;;;;;;;;10475749;28;20029;-80
2023/09/21 19:51:40;;;;;;;10.80;6.20;;;;;;;;;;10479270;28;20024;-81
2023/09/21 19:56:42;;;;;;;10.05;6.00;;;;;;;;;;10466959;28;20024;-80
2023/09/21 20:01:43;;;;;;;9.85;6.57;;;;;;;;;;10476482;28;20644;-80
2023/09/21 20:06:44;;;;;;;9.05;5.65;;;;;;;;;;10473748;28;20380;-80
2023/09/21 20:11:46;;;;;;;7.95;5.45;;;;;;;;;;10463585;28;20047;-81
2023/09/21 20:16:47;;;;;;;8.68;6.32;;;;;;;;;;10465391;28;20479;-82
2023/09/21 20:21:50;;;;;;;11.38;6.63;;;;;;;;;;10467081;28;20033;-81
2023/09/21 20:26:51;;;;;;;9.38;6.05;;;;;;;;;;10464932;28;20033;-80
2023/09/21 20:31:53;;;;;;;11.05;5.93;;;;;;;;;;10477040;28;20039;-81
2023/09/21 20:36:56;;;;;;;9.48;6.03;;;;;;;;;;10468890;28;20049;-80
2023/09/21 20:41:57;;;;;;;8.93;5.60;;;;;;;;;;10456591;28;20037;-81
2023/09/21 20:46:59;;;;;;;11.30;6.15;;;;;;;;;;10463787;28;20037;-81
2023/09/21 20:52:00;;;;;;;12.40;6.25;;;;;;;;;;10430128;28;20044;-80
2023/09/21 20:57:02;;;;;;;8.70;6.28;;;;;;;;;;10457406;28;20071;-80
2023/09/21 21:02:03;;;;;;;13.07;6.38;;;;;;;;;;10475745;28;20043;-80
2023/09/21 21:07:04;;;;;;;11.18;6.20;;;;;;;;;;10487639;28;20052;-80
2023/09/21 21:12:05;;;;;;;11.20;6.28;;;;;;;;;;10486498;28;20033;-80
2023/09/21 21:17:08;;;;;;;12.80;6.60;;;;;;;;;;10486530;28;20036;-81
2023/09/21 21:22:09;;;;;;;12.07;6.93;;;;;;;;;;10486842;28;20032;-79
2023/09/21 21:27:10;;;;;;;10.43;6.53;;;;;;;;;;10485910;28;20058;-80
2023/09/21 21:32:11;;;;;;;11.10;6.40;;;;;;;;;;10485479;28;20028;-80
2023/09/21 21:37:12;;;;;;;8.55;6.07;;;;;;;;;;10486209;28;20143;-80
2023/09/21 21:42:14;;;;;;;9.77;6.22;;;;;;;;;;10486976;28;20114;-80
2023/09/21 21:47:15;;;;;;;10.43;6.30;;;;;;;;;;10483865;28;20039;-80
2023/09/21 21:52:16;;;;;;;11.15;5.95;;;;;;;;;;10485184;28;20710;-80
2023/09/21 21:57:17;;;;;;;11.63;6.22;;;;;;;;;;10445519;28;20066;-81
2023/09/21 22:02:18;;;;;;;10.98;6.50;;;;;;;;;;10485163;28;20058;-80
2023/09/21 22:07:20;;;;;;;9.63;6.15;;;;;;;;;;10473480;28;20503;-80
2023/09/21 22:12:22;;;;;;;8.95;6.45;;;;;;;;;;10485330;28;20036;-81
2023/09/21 22:17:24;;;;;;;11.38;6.90;;;;;;;;;;10483644;28;20041;-80
2023/09/21 22:22:28;;;;;;;12.57;6.35;;;;;;;;;;10485480;28;20533;-81
2023/09/21 22:27:29;;;;;;;13.30;6.63;;;;;;;;;;10484909;28;20035;-81
2023/09/21 22:32:30;;;;;;;10.77;6.20;;;;;;;;;;10482839;28;20726;-81
2023/09/21 22:37:31;;;;;;;9.75;5.95;;;;;;;;;;10487193;28;20060;-81
2023/09/21 22:42:33;;;;;;;9.20;5.78;;;;;;;;;;10498731;28;20434;-81
2023/09/21 22:47:34;;;;;;;9.57;6.05;;;;;;;;;;10496922;28;20093;-81
2023/09/21 22:52:35;;;;;;;11.35;6.32;;;;;;;;;;10497755;28;20154;-80
2023/09/21 22:57:36;;;;;;;11.32;6.40;;;;;;;;;;10498006;28;20033;-80
2023/09/21 23:02:37;;;;;;;12.30;6.72;;;;;;;;;;10495333;28;20480;-82
2023/09/21 23:07:39;;;;;;;9.20;5.75;;;;;;;;;;10497706;28;20080;-81
2023/09/21 23:12:41;;;;;;;11.55;5.25;;;;;;;;;;10498177;28;20463;-80
2023/09/21 23:17:42;;;;;;;12.57;6.22;;;;;;;;;;10496863;28;20327;-81
2023/09/21 23:22:44;;;;;;;9.85;5.63;;;;;;;;;;10497811;28;20037;-81
2023/09/21 23:27:45;;;;;;;10.95;5.60;;;;;;;;;;10496937;28;20040;-80
2023/09/21 23:32:46;;;;;;;8.35;5.80;;;;;;;;;;10497190;28;20538;-81
2023/09/21 23:37:48;;;;;;;9.82;6.03;;;;;;;;;;10498490;28;20119;-81
2023/09/21 23:42:50;;;;;;;9.70;5.90;;;;;;;;;;10497380;28;20034;-81
2023/09/21 23:47:51;;;;;;;11.50;6.43;;;;;;;;;;10496519;28;20059;-81
2023/09/21 23:52:52;;;;;;;9.73;6.47;;;;;;;;;;10488637;28;20110;-81
2023/09/21 23:57:53;;;;;;;10.50;6.38;;;;;;;;;;10490985;28;20047;-82
